Gratton, Virginia
Current Conditions -  °F | °C
As of 10:15 PM on Thursday 18 Dec 2014 (Local Time) from KMKJ Reporting Station
Overcast Overcast  
Wind Chill: 29°   Ceiling: 4700
Heat Index: 36°   Visibility: 10mi
Dew Point: 25°   Wind: 8mph
Humidity: 65%   Direction: 260°W
Pressure: 30.09"   Gusts: NA
Location:  37.0706°N, 81.5072°W
Report Text: KMKJ 190315Z AUTO 26007KT 10SM OVC047 02/M04 A3009 RMK AO2 T00201040
Loading
Personal Weather Stations






























Interactive Weather Map New forecast layout! Learn more

10-Day Weather Forecast

Advertisements
Track Severe Weather on mobile